createdAt,value
2022-10-11T00:01:56.933Z,11.46
2022-10-11T00:04:59.815Z,11.44
2022-10-11T00:08:05.615Z,11.40
2022-10-11T00:11:08.587Z,11.38
2022-10-11T00:14:11.276Z,11.42
2022-10-11T00:17:14.786Z,11.37
2022-10-11T00:20:18.269Z,11.54
2022-10-11T00:23:21.184Z,11.38
2022-10-11T00:26:23.789Z,11.53
2022-10-11T00:29:26.749Z,11.48
2022-10-11T00:32:29.619Z,11.27
2022-10-11T00:35:32.504Z,11.34
2022-10-11T00:38:35.168Z,11.31
2022-10-11T00:41:38.111Z,11.29
2022-10-11T00:44:45.754Z,11.23
2022-10-11T00:47:48.672Z,11.26
2022-10-11T00:50:51.313Z,11.24
2022-10-11T00:53:54.769Z,11.28
2022-10-11T00:57:04.863Z,11.25
2022-10-11T01:00:11.401Z,11.15
2022-10-11T01:03:14.588Z,11.06
2022-10-11T01:06:17.569Z,11.08
2022-10-11T01:09:21.272Z,11.03
2022-10-11T01:12:26.896Z,10.84
2022-10-11T01:15:47.935Z,10.80
2022-10-11T01:19:12.808Z,10.88
2022-10-11T01:22:38.707Z,10.84
2022-10-11T01:25:44.508Z,10.67
2022-10-11T01:29:05.494Z,10.62
2022-10-11T01:32:29.883Z,10.55
2022-10-11T01:35:44.282Z,10.52
2022-10-11T01:38:52.587Z,10.41
2022-10-11T01:42:00.848Z,10.43
2022-10-11T01:45:05.643Z,10.43
2022-10-11T01:48:13.835Z,10.35
2022-10-11T01:51:22.143Z,10.28
2022-10-11T01:55:08.094Z,10.13
2022-10-11T01:58:34.904Z,10.30
2022-10-11T02:02:03.644Z,10.20
2022-10-11T02:05:32.474Z,10.17
2022-10-11T02:08:54.775Z,10.09
2022-10-11T02:12:11.159Z,10.18
2022-10-11T02:15:16.427Z,10.23
2022-10-11T02:18:27.484Z,10.16
2022-10-11T02:21:34.027Z,10.16
2022-10-11T02:24:42.962Z,10.16
2022-10-11T02:27:48.508Z,10.02
2022-10-11T02:30:53.708Z,10.00
2022-10-11T02:34:02.632Z,9.89
2022-10-11T02:37:09.429Z,9.87
2022-10-11T02:40:21.322Z,9.81
2022-10-11T02:43:37.035Z,9.82
2022-10-11T02:46:41.448Z,9.75
2022-10-11T02:49:44.513Z,9.69
2022-10-11T02:52:47.133Z,9.69
2022-10-11T02:55:52.743Z,9.66
2022-10-11T02:58:55.424Z,9.65
2022-10-11T03:01:58.427Z,9.62
2022-10-11T03:05:01.085Z,9.52
2022-10-11T03:08:04.113Z,9.42
2022-10-11T03:11:06.929Z,9.54
2022-10-11T03:14:09.762Z,9.60
2022-10-11T03:17:35.177Z,9.40
2022-10-11T03:20:35.740Z,9.49
2022-10-11T03:23:38.315Z,9.59
2022-10-11T03:26:41.211Z,9.55
2022-10-11T03:29:43.760Z,9.57
2022-10-11T03:32:46.642Z,9.71
2022-10-11T03:35:49.827Z,9.73
2022-10-11T03:38:52.756Z,9.74
2022-10-11T03:41:55.279Z,9.73
2022-10-11T03:44:59.800Z,9.74
2022-10-11T03:48:02.831Z,9.85
2022-10-11T03:51:05.901Z,9.93
2022-10-11T03:54:08.492Z,9.95
2022-10-11T03:57:11.403Z,10.04
2022-10-11T04:00:14.225Z,10.08
2022-10-11T04:03:17.155Z,10.05
2022-10-11T04:06:19.773Z,10.19
2022-10-11T04:09:22.811Z,10.14
2022-10-11T04:12:25.693Z,10.08
2022-10-11T04:15:28.650Z,10.24
2022-10-11T04:18:31.553Z,10.20
2022-10-11T04:21:34.476Z,10.11
2022-10-11T04:24:37.115Z,10.15
2022-10-11T04:27:40.248Z,10.17
2022-10-11T04:30:42.813Z,10.18
2022-10-11T04:33:45.806Z,10.21
2022-10-11T04:36:50.048Z,10.23
2022-10-11T04:39:53.143Z,10.14
2022-10-11T04:42:56.617Z,10.00
2022-10-11T04:45:59.552Z,9.99
2022-10-11T04:49:02.303Z,9.89
2022-10-11T04:52:05.485Z,9.78
2022-10-11T04:55:09.183Z,9.77
2022-10-11T04:58:12.157Z,9.71
2022-10-11T05:01:15.393Z,9.60
2022-10-11T05:04:18.812Z,9.66
2022-10-11T05:07:21.494Z,9.70
2022-10-11T05:10:25.198Z,9.75
2022-10-11T05:13:28.932Z,9.80
2022-10-11T05:16:32.204Z,9.90
2022-10-11T05:19:36.661Z,10.05
2022-10-11T05:22:39.638Z,10.16
2022-10-11T05:25:42.335Z,10.28
2022-10-11T05:28:47.139Z,10.29
2022-10-11T05:31:49.788Z,10.42
2022-10-11T05:34:52.598Z,10.45
2022-10-11T05:37:55.660Z,10.57
2022-10-11T05:41:02.586Z,10.67
2022-10-11T05:44:08.249Z,10.56
2022-10-11T05:47:11.167Z,10.77
2022-10-11T05:50:13.871Z,10.81
2022-10-11T05:53:17.301Z,10.85
2022-10-11T05:56:24.790Z,10.90
2022-10-11T05:59:27.792Z,11.00
2022-10-11T06:02:30.389Z,11.11
2022-10-11T06:05:34.825Z,11.15
2022-10-11T06:08:37.451Z,11.31
2022-10-11T06:11:41.415Z,11.37
2022-10-11T06:14:44.611Z,11.52
2022-10-11T06:17:48.035Z,11.66
2022-10-11T06:20:50.595Z,11.76
2022-10-11T06:23:59.912Z,11.90
2022-10-11T06:27:03.679Z,12.01
2022-10-11T06:30:07.520Z,12.09
2022-10-11T06:33:11.281Z,12.15
2022-10-11T06:36:15.711Z,12.19
2022-10-11T06:39:18.267Z,12.31
2022-10-11T06:42:21.201Z,12.47
2022-10-11T06:45:23.766Z,12.62
2022-10-11T06:48:27.052Z,12.69
2022-10-11T06:51:30.297Z,12.85
2022-10-11T06:54:33.137Z,12.96
2022-10-11T06:57:35.822Z,13.08
2022-10-11T07:00:39.458Z,13.09
2022-10-11T07:03:42.454Z,13.33
2022-10-11T07:06:45.353Z,13.47
2022-10-11T07:09:47.972Z,13.68
2022-10-11T07:12:52.307Z,13.77
2022-10-11T07:15:55.444Z,13.93
2022-10-11T07:19:01.340Z,13.95
2022-10-11T07:22:04.611Z,13.91
2022-10-11T07:25:07.780Z,14.07
2022-10-11T07:28:10.513Z,14.18
2022-10-11T07:31:20.687Z,14.11
2022-10-11T07:34:23.212Z,14.43
2022-10-11T07:37:26.729Z,14.35
2022-10-11T07:40:40.459Z,14.36
2022-10-11T07:43:44.777Z,14.37
2022-10-11T07:46:48.592Z,14.67
2022-10-11T07:49:51.504Z,14.73
2022-10-11T07:52:56.263Z,14.78
2022-10-11T07:56:02.804Z,14.79
2022-10-11T07:59:06.417Z,14.93
2022-10-11T08:02:11.908Z,15.01
2022-10-11T08:05:14.883Z,15.05
2022-10-11T08:08:20.747Z,15.04
2022-10-11T08:11:26.358Z,15.12
2022-10-11T08:14:29.320Z,15.08
2022-10-11T08:17:33.366Z,15.29
2022-10-11T08:20:39.611Z,15.19
2022-10-11T08:23:42.556Z,15.47
2022-10-11T08:26:45.337Z,15.68
2022-10-11T08:29:48.395Z,15.65
2022-10-11T08:32:51.023Z,15.66
2022-10-11T08:35:55.135Z,15.79
2022-10-11T08:38:58.627Z,15.70
2022-10-11T08:42:30.544Z,15.81
2022-10-11T08:45:46.191Z,15.94
2022-10-11T08:48:51.408Z,15.92
2022-10-11T08:52:02.733Z,15.96
2022-10-11T08:55:16.354Z,16.14
2022-10-11T08:58:24.419Z,16.39
2022-10-11T09:01:28.778Z,16.57
2022-10-11T09:04:32.395Z,16.32
2022-10-11T09:08:09.470Z,16.28
2022-10-11T09:11:30.766Z,16.32
2022-10-11T09:14:49.041Z,16.41
2022-10-11T09:18:09.667Z,16.18
2022-10-11T09:21:34.159Z,16.49
2022-10-11T09:24:47.382Z,16.36
2022-10-11T09:28:07.862Z,16.54
2022-10-11T09:31:11.827Z,16.71
2022-10-11T09:34:17.084Z,16.61
2022-10-11T09:37:30.407Z,16.78
2022-10-11T09:40:43.728Z,16.90
2022-10-11T09:43:49.496Z,17.06
2022-10-11T09:46:55.002Z,16.95
2022-10-11T09:50:03.278Z,17.15
2022-10-11T09:53:07.756Z,17.25
2022-10-11T09:56:10.529Z,17.12
2022-10-11T09:59:35.926Z,17.23
2022-10-11T10:02:49.028Z,17.38
2022-10-11T10:06:24.949Z,17.25
2022-10-11T10:09:33.698Z,17.50
2022-10-11T10:12:36.636Z,17.28
2022-10-11T10:15:46.959Z,17.30
2022-10-11T10:19:18.447Z,17.18
2022-10-11T10:22:27.439Z,16.86
2022-10-11T10:25:38.483Z,16.91
2022-10-11T10:29:02.176Z,17.08
2022-10-11T10:32:21.607Z,17.18
2022-10-11T10:35:45.489Z,17.19
2022-10-11T10:38:58.971Z,17.45
2022-10-11T10:42:05.043Z,17.64
2022-10-11T10:45:20.050Z,17.54
2022-10-11T10:49:28.331Z,17.72
2022-10-11T10:52:11.661Z,17.72
2022-10-11T10:55:23.961Z,17.83
2022-10-11T10:59:07.126Z,17.74
2022-10-11T11:06:08.221Z,17.98
2022-10-11T11:09:55.957Z,18.13
2022-10-11T11:13:14.036Z,18.34
2022-10-11T11:16:22.362Z,18.33
2022-10-11T11:19:55.750Z,18.38
2022-10-11T11:23:23.780Z,18.28
2022-10-11T11:27:12.348Z,18.29
2022-10-11T11:30:31.082Z,18.42
2022-10-11T11:33:58.922Z,18.46
2022-10-11T11:37:31.844Z,18.45
2022-10-11T11:40:44.371Z,18.56
2022-10-11T11:43:56.048Z,18.49
2022-10-11T11:47:31.270Z,18.59
2022-10-11T11:50:42.011Z,18.65
2022-10-11T11:54:05.090Z,18.66
2022-10-11T11:57:32.754Z,18.55
2022-10-11T12:00:51.607Z,18.54
2022-10-11T12:03:59.855Z,18.71
2022-10-11T12:07:16.379Z,18.76
2022-10-11T12:10:54.793Z,18.72
2022-10-11T12:13:59.391Z,18.81
2022-10-11T12:17:13.239Z,18.46
2022-10-11T12:20:27.683Z,18.65
2022-10-11T12:23:30.426Z,18.84
2022-10-11T12:26:39.064Z,18.95
2022-10-11T12:29:42.570Z,18.96
2022-10-11T12:32:48.149Z,19.25
2022-10-11T12:35:53.733Z,19.30
2022-10-11T12:39:21.199Z,19.34
2022-10-11T12:42:50.604Z,19.57
2022-10-11T12:45:54.422Z,19.41
2022-10-11T12:49:12.816Z,19.03
2022-10-11T12:52:18.169Z,19.08
2022-10-11T12:56:04.331Z,19.33
2022-10-11T12:59:17.907Z,19.43
2022-10-11T13:02:29.236Z,19.45
2022-10-11T13:05:52.363Z,19.44
2022-10-11T13:09:18.231Z,19.39
2022-10-11T13:12:25.851Z,19.25
2022-10-11T13:15:30.637Z,19.14
2022-10-11T13:18:33.448Z,19.09
2022-10-11T13:21:36.896Z,19.04
2022-10-11T13:24:40.506Z,18.87
2022-10-11T13:27:44.055Z,18.92
2022-10-11T13:30:50.327Z,18.91
2022-10-11T13:33:59.153Z,18.82
2022-10-11T13:37:01.946Z,18.74
2022-10-11T13:40:05.671Z,18.89
2022-10-11T13:43:08.739Z,18.90
2022-10-11T13:46:26.940Z,18.93
2022-10-11T13:49:39.804Z,18.76
2022-10-11T13:52:54.740Z,18.75
2022-10-11T13:56:00.164Z,18.92
2022-10-11T13:59:03.345Z,18.89
2022-10-11T14:02:22.411Z,18.77
2022-10-11T14:05:41.289Z,18.77
2022-10-11T14:08:50.259Z,18.68
2022-10-11T14:11:53.739Z,18.63
2022-10-11T14:14:57.423Z,18.53
2022-10-11T14:18:02.871Z,18.54
2022-10-11T14:21:45.751Z,18.44
2022-10-11T14:24:48.743Z,18.34
2022-10-11T14:27:51.941Z,18.35
2022-10-11T14:30:55.113Z,18.35
2022-10-11T14:33:58.868Z,18.31
2022-10-11T14:37:01.803Z,18.20
2022-10-11T14:40:12.816Z,18.16
2022-10-11T14:43:15.728Z,18.11
2022-10-11T14:46:24.053Z,18.10
2022-10-11T14:49:29.885Z,18.06
2022-10-11T14:52:32.485Z,17.98
2022-10-11T14:55:39.477Z,17.95
2022-10-11T14:58:43.400Z,17.91
2022-10-11T15:01:46.903Z,17.91
2022-10-11T15:04:49.557Z,17.85
2022-10-11T15:07:52.551Z,17.90
2022-10-11T15:10:55.165Z,17.88
2022-10-11T15:13:58.098Z,17.85
2022-10-11T15:17:00.700Z,17.79
2022-10-11T15:20:04.747Z,17.65
2022-10-11T15:23:09.858Z,17.55
2022-10-11T15:26:21.425Z,17.44
2022-10-11T15:29:24.936Z,17.31
2022-10-11T15:32:27.786Z,17.17
2022-10-11T15:35:30.739Z,17.10
2022-10-11T15:38:33.897Z,16.93
2022-10-11T15:41:36.756Z,16.88
2022-10-11T15:44:39.600Z,16.78
2022-10-11T15:47:42.259Z,16.66
2022-10-11T15:50:46.002Z,16.52
2022-10-11T15:53:48.681Z,16.57
2022-10-11T15:56:51.656Z,16.49
2022-10-11T15:59:54.400Z,16.48
2022-10-11T16:02:59.404Z,16.39
2022-10-11T16:06:05.515Z,16.33
2022-10-11T16:09:08.815Z,16.21
2022-10-11T16:12:11.833Z,16.12
2022-10-11T16:15:15.196Z,16.06
2022-10-11T16:18:21.231Z,16.00
2022-10-11T16:21:24.252Z,15.95
2022-10-11T16:24:27.416Z,15.96
2022-10-11T16:27:30.152Z,16.01
2022-10-11T16:30:34.279Z,16.01
2022-10-11T16:33:46.067Z,15.98
2022-10-11T16:36:49.355Z,15.91
2022-10-11T16:39:52.640Z,15.92
2022-10-11T16:42:55.796Z,15.86
2022-10-11T16:45:58.431Z,15.71
2022-10-11T16:49:01.966Z,15.78
2022-10-11T16:52:04.908Z,15.61
2022-10-11T16:55:08.503Z,15.77
2022-10-11T16:58:11.118Z,15.62
2022-10-11T17:01:14.173Z,15.68
2022-10-11T17:04:16.830Z,15.59
2022-10-11T17:07:22.136Z,15.51
2022-10-11T17:10:39.409Z,15.42
2022-10-11T17:13:42.482Z,15.43
2022-10-11T17:16:45.589Z,15.40
2022-10-11T17:19:48.928Z,15.38
2022-10-11T17:22:51.684Z,15.37
2022-10-11T17:25:54.647Z,15.38
2022-10-11T17:28:59.723Z,15.40
2022-10-11T17:32:03.338Z,15.41
2022-10-11T17:35:06.335Z,15.40
2022-10-11T17:38:09.265Z,15.42
2022-10-11T17:41:12.349Z,15.44
2022-10-11T17:44:19.103Z,15.51
2022-10-11T17:47:21.621Z,15.56
2022-10-11T17:50:24.586Z,15.56
2022-10-11T17:53:27.156Z,15.49
2022-10-11T17:56:35.104Z,15.60
2022-10-11T17:59:40.091Z,15.59
2022-10-11T18:02:42.984Z,15.61
2022-10-11T18:05:46.227Z,15.62
2022-10-11T18:08:49.972Z,15.58
2022-10-11T18:11:52.991Z,15.55
2022-10-11T18:14:55.613Z,15.52
2022-10-11T18:17:59.541Z,15.47
2022-10-11T18:21:02.317Z,15.40
2022-10-11T18:24:12.678Z,15.32
2022-10-11T18:27:15.272Z,15.34
2022-10-11T18:30:18.473Z,15.31
2022-10-11T18:33:21.086Z,15.23
2022-10-11T18:36:27.595Z,15.27
2022-10-11T18:39:30.433Z,15.26
2022-10-11T18:42:33.333Z,15.26
2022-10-11T18:45:35.924Z,15.20
2022-10-11T18:48:43.437Z,15.20
2022-10-11T18:51:46.656Z,15.15
2022-10-11T18:54:51.026Z,15.12
2022-10-11T18:57:53.915Z,15.12
2022-10-11T19:01:04.730Z,15.06
2022-10-11T19:04:09.386Z,15.17
2022-10-11T19:07:12.300Z,15.13
2022-10-11T19:10:15.169Z,15.15
2022-10-11T19:13:18.040Z,15.16
2022-10-11T19:16:22.642Z,15.20
2022-10-11T19:19:28.322Z,15.20
2022-10-11T19:22:30.933Z,15.18
2022-10-11T19:25:36.567Z,15.10
2022-10-11T19:28:39.544Z,15.17
2022-10-11T19:31:44.681Z,15.15
2022-10-11T19:34:47.273Z,14.99
2022-10-11T19:37:50.150Z,15.10
2022-10-11T19:40:53.017Z,15.08
2022-10-11T19:43:58.139Z,15.13
2022-10-11T19:47:05.309Z,15.08
2022-10-11T19:50:08.908Z,15.00
2022-10-11T19:53:11.666Z,15.08
2022-10-11T19:56:17.764Z,15.07
2022-10-11T19:59:21.188Z,15.08
2022-10-11T20:02:24.041Z,15.07
2022-10-11T20:05:27.415Z,15.06
2022-10-11T20:08:33.611Z,15.02
2022-10-11T20:11:36.783Z,15.00
2022-10-11T20:14:39.845Z,15.01
2022-10-11T20:17:48.619Z,15.01
2022-10-11T20:20:56.629Z,15.00
2022-10-11T20:24:02.192Z,14.98
2022-10-11T20:27:05.812Z,15.00
2022-10-11T20:30:09.208Z,14.99
2022-10-11T20:33:12.050Z,14.95
2022-10-11T20:36:18.723Z,14.93
2022-10-11T20:39:21.440Z,14.89
2022-10-11T20:42:28.872Z,14.86
2022-10-11T20:45:33.656Z,14.88
2022-10-11T20:48:37.969Z,14.83
2022-10-11T20:51:41.940Z,14.72
2022-10-11T20:54:44.745Z,14.84
2022-10-11T20:57:47.310Z,14.88
2022-10-11T21:00:50.223Z,14.74
2022-10-11T21:03:53.491Z,14.72
2022-10-11T21:06:56.327Z,14.71
2022-10-11T21:09:58.928Z,14.73
2022-10-11T21:13:02.169Z,14.70
2022-10-11T21:16:11.987Z,14.68
2022-10-11T21:19:15.886Z,14.68
2022-10-11T21:22:18.427Z,14.66
2022-10-11T21:25:21.252Z,14.65
2022-10-11T21:28:23.778Z,14.68
2022-10-11T21:31:32.723Z,14.63
2022-10-11T21:34:36.540Z,14.59
2022-10-11T21:37:39.452Z,14.58
2022-10-11T21:40:41.992Z,14.52
2022-10-11T21:43:44.859Z,14.48
2022-10-11T21:47:06.211Z,14.52
2022-10-11T21:50:10.208Z,14.41
2022-10-11T21:53:12.844Z,14.46
2022-10-11T21:56:16.080Z,14.53
2022-10-11T21:59:18.735Z,14.42
2022-10-11T22:02:21.686Z,14.49
2022-10-11T22:05:24.686Z,14.49
2022-10-11T22:08:27.704Z,14.42
2022-10-11T22:11:30.788Z,14.44
2022-10-11T22:14:33.526Z,14.42
2022-10-11T22:17:36.445Z,14.42
2022-10-11T22:20:39.062Z,14.39
2022-10-11T22:23:43.491Z,14.34
2022-10-11T22:26:46.147Z,14.26
2022-10-11T22:29:49.531Z,14.24
2022-10-11T22:32:52.551Z,14.19
2022-10-11T22:36:00.428Z,14.10
2022-10-11T22:39:07.868Z,14.00
2022-10-11T22:42:10.817Z,13.92
2022-10-11T22:45:13.379Z,13.81
2022-10-11T22:48:16.512Z,13.73
2022-10-11T22:51:19.138Z,13.69
2022-10-11T22:54:21.999Z,13.64
2022-10-11T22:57:24.786Z,13.54
2022-10-11T23:00:27.960Z,13.51
2022-10-11T23:03:30.600Z,13.45
2022-10-11T23:06:33.456Z,13.49
2022-10-11T23:09:36.046Z,13.46
2022-10-11T23:12:38.965Z,13.43
2022-10-11T23:15:41.648Z,13.38
2022-10-11T23:18:44.488Z,13.33
2022-10-11T23:21:47.011Z,13.44
2022-10-11T23:24:49.940Z,13.33
2022-10-11T23:27:52.583Z,13.33
2022-10-11T23:30:55.530Z,13.27
2022-10-11T23:33:58.080Z,13.20
2022-10-11T23:37:01.860Z,13.17
2022-10-11T23:40:05.019Z,13.13
2022-10-11T23:43:07.833Z,13.04
2022-10-11T23:46:10.441Z,13.16
2022-10-11T23:49:13.527Z,13.16
2022-10-11T23:52:16.140Z,13.09
2022-10-11T23:55:19.030Z,13.11
2022-10-11T23:58:21.569Z,13.03
